createdAt,value
2022-08-31T00:00:33.480Z,6.77
2022-08-31T00:03:18.937Z,6.10
2022-08-31T00:05:46.334Z,6.10
2022-08-31T00:08:13.646Z,6.70
2022-08-31T00:10:44.938Z,5.90
2022-08-31T00:13:12.907Z,6.80
2022-08-31T00:15:40.211Z,6.63
2022-08-31T00:18:07.799Z,5.83
2022-08-31T00:20:36.322Z,7.00
2022-08-31T00:23:07.332Z,6.57
2022-08-31T00:25:35.600Z,6.63
2022-08-31T00:28:03.742Z,6.20
2022-08-31T00:30:32.577Z,6.30
2022-08-31T00:33:00.166Z,6.50
2022-08-31T00:35:29.802Z,6.03
2022-08-31T00:37:57.069Z,6.27
2022-08-31T00:40:25.417Z,6.27
2022-08-31T00:42:52.640Z,6.60
2022-08-31T00:45:20.399Z,6.20
2022-08-31T00:47:47.426Z,6.33
2022-08-31T00:50:17.175Z,6.10
2022-08-31T00:52:49.848Z,6.20
2022-08-31T00:55:27.708Z,6.83
2022-08-31T00:57:58.589Z,6.37
2022-08-31T01:00:27.978Z,6.07
2022-08-31T01:02:57.683Z,6.80
2022-08-31T01:05:25.476Z,6.70
2022-08-31T01:07:53.179Z,6.10
2022-08-31T01:10:24.520Z,6.17
2022-08-31T01:12:54.372Z,6.60
2022-08-31T01:15:22.704Z,6.57
2022-08-31T01:17:53.009Z,6.80
2022-08-31T01:20:27.932Z,6.20
2022-08-31T01:23:21.828Z,6.73
2022-08-31T01:25:51.362Z,6.90
2022-08-31T01:28:18.306Z,7.63
2022-08-31T01:31:01.921Z,6.60
2022-08-31T01:33:30.724Z,6.33
2022-08-31T01:35:58.582Z,6.50
2022-08-31T01:38:26.824Z,6.60
2022-08-31T01:40:58.289Z,7.10
2022-08-31T01:43:26.000Z,6.17
2022-08-31T01:45:53.348Z,7.13
2022-08-31T01:48:21.769Z,6.80
2022-08-31T01:50:51.753Z,6.67
2022-08-31T01:53:18.987Z,6.43
2022-08-31T01:55:46.467Z,6.73
2022-08-31T01:58:14.026Z,7.00
2022-08-31T02:00:41.787Z,6.30
2022-08-31T02:03:08.826Z,6.87
2022-08-31T02:05:37.242Z,7.30
2022-08-31T02:08:08.106Z,6.93
2022-08-31T02:10:35.875Z,6.77
2022-08-31T02:13:04.011Z,6.70
2022-08-31T02:15:32.522Z,6.00
2022-08-31T02:17:59.940Z,7.57
2022-08-31T02:20:27.437Z,7.23
2022-08-31T02:22:54.393Z,6.60
2022-08-31T02:25:21.430Z,6.97
2022-08-31T02:27:48.377Z,6.60
2022-08-31T02:30:18.635Z,7.00
2022-08-31T02:32:45.665Z,6.70
2022-08-31T02:35:13.259Z,7.00
2022-08-31T02:37:40.357Z,6.07
2022-08-31T02:40:12.354Z,7.37
2022-08-31T02:42:52.148Z,7.10
2022-08-31T02:45:22.240Z,6.47
2022-08-31T02:47:49.227Z,6.77
2022-08-31T02:50:16.637Z,7.10
2022-08-31T02:52:46.777Z,7.40
2022-08-31T02:55:14.531Z,7.10
2022-08-31T02:57:41.452Z,6.93
2022-08-31T03:00:10.386Z,7.63
2022-08-31T03:02:37.410Z,7.50
2022-08-31T03:05:08.611Z,7.60
2022-08-31T03:07:37.434Z,7.47
2022-08-31T03:10:08.135Z,5.97
2022-08-31T03:12:36.648Z,7.20
2022-08-31T03:15:06.665Z,7.97
2022-08-31T03:17:34.327Z,7.60
2022-08-31T03:20:05.126Z,7.90
2022-08-31T03:22:33.950Z,6.60
2022-08-31T03:25:01.253Z,7.83
2022-08-31T03:27:31.613Z,7.33
2022-08-31T03:29:59.366Z,6.90
2022-08-31T03:32:27.508Z,6.80
2022-08-31T03:34:59.903Z,7.70
2022-08-31T03:37:28.047Z,7.53
2022-08-31T03:39:55.353Z,7.47
2022-08-31T03:42:22.459Z,7.50
2022-08-31T03:44:49.442Z,7.00
2022-08-31T03:47:16.824Z,7.43
2022-08-31T03:49:44.331Z,7.37
2022-08-31T03:52:11.679Z,7.50
2022-08-31T03:54:38.662Z,7.10
2022-08-31T03:57:06.870Z,7.50
2022-08-31T03:59:33.818Z,7.10
2022-08-31T04:02:00.771Z,7.70
2022-08-31T04:04:27.749Z,7.30
2022-08-31T04:06:54.650Z,7.53
2022-08-31T04:09:21.650Z,7.73
2022-08-31T04:11:48.648Z,7.70
2022-08-31T04:14:15.743Z,8.00
2022-08-31T04:16:43.892Z,7.60
2022-08-31T04:19:15.830Z,8.40
2022-08-31T04:21:44.271Z,8.07
2022-08-31T04:24:12.265Z,9.47
2022-08-31T04:26:43.307Z,8.67
2022-08-31T04:29:13.269Z,8.80
2022-08-31T04:31:40.653Z,8.70
2022-08-31T04:34:07.582Z,7.87
2022-08-31T04:36:34.898Z,8.00
2022-08-31T04:39:04.142Z,7.73
2022-08-31T04:41:33.763Z,8.00
2022-08-31T04:44:02.652Z,8.77
2022-08-31T04:46:30.836Z,8.00
2022-08-31T04:48:58.273Z,8.03
2022-08-31T04:51:31.080Z,7.53
2022-08-31T04:53:58.766Z,8.67
2022-08-31T04:56:29.665Z,8.37
2022-08-31T04:59:05.049Z,8.30
2022-08-31T05:01:43.106Z,7.60
2022-08-31T05:04:13.763Z,7.90
2022-08-31T05:06:44.675Z,8.47
2022-08-31T05:09:17.666Z,7.90
2022-08-31T05:11:47.470Z,8.30
2022-08-31T05:14:14.802Z,7.87
2022-08-31T05:16:43.041Z,7.77
2022-08-31T05:19:10.680Z,7.70
2022-08-31T05:21:41.178Z,7.67
2022-08-31T05:24:13.462Z,8.10
2022-08-31T05:26:48.287Z,8.37
2022-08-31T05:29:18.988Z,7.40
2022-08-31T05:31:51.439Z,7.37
2022-08-31T05:34:20.927Z,8.50
2022-08-31T05:36:53.402Z,7.67
2022-08-31T05:39:21.223Z,8.80
2022-08-31T05:41:48.926Z,8.30
2022-08-31T05:44:17.279Z,9.40
2022-08-31T05:46:44.733Z,9.33
2022-08-31T05:49:20.060Z,9.93
2022-08-31T05:51:47.003Z,10.10
2022-08-31T05:54:15.918Z,10.73
2022-08-31T05:56:43.166Z,10.30
2022-08-31T05:59:11.668Z,8.77
2022-08-31T06:01:41.319Z,11.00
2022-08-31T06:04:09.503Z,9.30
2022-08-31T06:06:37.160Z,8.77
2022-08-31T06:09:08.351Z,10.03
2022-08-31T06:11:38.916Z,9.90
2022-08-31T06:14:14.655Z,9.87
2022-08-31T06:16:46.365Z,10.20
2022-08-31T06:19:15.271Z,9.50
2022-08-31T06:21:50.435Z,9.70
2022-08-31T06:24:19.211Z,9.03
2022-08-31T06:26:56.676Z,8.83
2022-08-31T06:29:25.078Z,8.60
2022-08-31T06:31:52.070Z,9.33
2022-08-31T06:34:20.658Z,9.57
2022-08-31T06:36:48.870Z,8.93
2022-08-31T06:39:16.908Z,10.23
2022-08-31T06:41:44.140Z,42.00
2022-08-31T06:44:14.206Z,19.03
2022-08-31T06:46:42.175Z,10.43
2022-08-31T06:49:15.815Z,9.37
2022-08-31T06:51:43.378Z,8.47
2022-08-31T06:54:30.073Z,9.03
2022-08-31T06:56:59.388Z,8.40
2022-08-31T06:59:29.139Z,8.97
2022-08-31T07:01:59.039Z,9.87
2022-08-31T07:04:26.691Z,8.60
2022-08-31T07:06:53.891Z,10.50
2022-08-31T07:09:21.232Z,17.03
2022-08-31T07:11:52.105Z,14.80
2022-08-31T07:14:23.717Z,11.07
2022-08-31T07:16:53.770Z,9.23
2022-08-31T07:19:21.953Z,9.10
2022-08-31T07:21:55.914Z,9.50
2022-08-31T07:24:28.919Z,8.27
2022-08-31T07:27:00.482Z,8.73
2022-08-31T07:29:31.513Z,8.40
2022-08-31T07:31:59.419Z,13.27
2022-08-31T07:34:30.003Z,26.57
2022-08-31T07:37:17.941Z,13.87
2022-08-31T07:40:07.815Z,10.00
2022-08-31T07:42:41.172Z,10.77
2022-08-31T07:45:22.931Z,9.50
2022-08-31T07:47:56.182Z,9.73
2022-08-31T07:50:23.759Z,9.37
2022-08-31T07:52:54.479Z,9.53
2022-08-31T07:55:25.085Z,8.20
2022-08-31T07:57:55.020Z,9.53
2022-08-31T08:00:33.014Z,8.20
2022-08-31T08:03:07.903Z,8.50
2022-08-31T08:05:38.693Z,9.23
2022-08-31T08:08:11.875Z,9.80
2022-08-31T08:10:46.541Z,9.67
2022-08-31T08:13:13.978Z,8.87
2022-08-31T08:15:41.116Z,8.63
2022-08-31T08:18:10.718Z,8.30
2022-08-31T08:20:39.009Z,8.70
2022-08-31T08:23:18.082Z,8.47
2022-08-31T08:25:47.244Z,8.60
2022-08-31T08:31:06.827Z,8.27
2022-08-31T08:33:36.805Z,7.40
2022-08-31T08:36:07.939Z,7.40
2022-08-31T08:38:39.456Z,7.27
2022-08-31T08:41:13.143Z,8.20
2022-08-31T08:43:50.167Z,11.70
2022-08-31T08:46:35.472Z,11.00
2022-08-31T08:49:40.978Z,8.53
2022-08-31T08:52:23.985Z,7.97
2022-08-31T08:54:52.507Z,8.30
2022-08-31T08:57:34.636Z,8.13
2022-08-31T09:00:11.001Z,8.23
2022-08-31T09:03:17.814Z,8.90
2022-08-31T09:05:56.685Z,8.10
2022-08-31T09:08:31.185Z,7.47
2022-08-31T09:11:22.795Z,8.30
2022-08-31T09:14:53.584Z,6.97
2022-08-31T09:18:00.173Z,7.13
2022-08-31T09:20:28.328Z,6.63
2022-08-31T09:22:57.277Z,7.10
2022-08-31T09:25:37.371Z,7.80
2022-08-31T09:28:09.063Z,7.30
2022-08-31T09:30:44.719Z,7.53
2022-08-31T09:33:24.337Z,7.37
2022-08-31T09:35:58.283Z,12.03
2022-08-31T09:38:40.141Z,11.00
2022-08-31T09:41:30.911Z,8.00
2022-08-31T09:44:31.804Z,7.80
2022-08-31T09:47:06.388Z,7.00
2022-08-31T09:49:38.956Z,6.80
2022-08-31T09:53:00.506Z,7.10
2022-08-31T09:55:28.150Z,6.47
2022-08-31T09:58:03.253Z,6.13
2022-08-31T10:00:40.678Z,6.13
2022-08-31T10:03:13.472Z,6.70
2022-08-31T10:05:43.566Z,6.40
2022-08-31T10:08:53.666Z,6.50
2022-08-31T10:11:23.075Z,6.57
2022-08-31T10:14:18.140Z,6.77
2022-08-31T10:16:52.667Z,7.10
2022-08-31T10:19:30.382Z,6.80
2022-08-31T10:22:03.551Z,12.30
2022-08-31T10:24:48.538Z,15.30
2022-08-31T10:27:26.431Z,9.00
2022-08-31T10:30:28.692Z,7.30
2022-08-31T10:34:11.013Z,8.30
2022-08-31T10:41:05.531Z,7.90
2022-08-31T10:44:01.598Z,7.53
2022-08-31T10:46:34.523Z,7.37
2022-08-31T10:49:05.451Z,7.70
2022-08-31T10:52:18.196Z,7.87
2022-08-31T10:55:33.587Z,7.83
2022-08-31T10:58:25.292Z,7.30
2022-08-31T11:01:02.200Z,7.60
2022-08-31T11:03:59.128Z,7.87
2022-08-31T11:06:31.471Z,7.73
2022-08-31T11:09:21.110Z,9.90
2022-08-31T11:12:07.067Z,15.87
2022-08-31T11:15:17.719Z,9.10
2022-08-31T11:18:04.185Z,7.00
2022-08-31T11:20:58.073Z,8.87
2022-08-31T11:23:58.929Z,8.20
2022-08-31T11:26:57.072Z,7.80
2022-08-31T11:29:56.913Z,7.60
2022-08-31T11:32:35.013Z,7.63
2022-08-31T11:35:08.472Z,8.00
2022-08-31T11:37:54.819Z,8.43
2022-08-31T11:40:41.896Z,8.40
2022-08-31T11:43:31.696Z,8.20
2022-08-31T11:46:26.834Z,8.70
2022-08-31T11:48:54.916Z,7.90
2022-08-31T11:51:41.472Z,7.43
2022-08-31T11:54:43.574Z,7.60
2022-08-31T11:57:15.968Z,7.40
2022-08-31T11:59:48.643Z,8.83
2022-08-31T12:02:22.900Z,7.53
2022-08-31T12:04:53.412Z,8.03
2022-08-31T12:07:38.964Z,7.27
2022-08-31T12:11:05.005Z,7.37
2022-08-31T12:13:49.812Z,7.57
2022-08-31T12:16:31.011Z,7.60
2022-08-31T12:20:02.286Z,7.50
2022-08-31T12:23:27.605Z,6.60
2022-08-31T12:26:14.263Z,6.70
2022-08-31T12:29:18.844Z,7.60
2022-08-31T12:32:36.270Z,7.10
2022-08-31T12:35:25.636Z,6.80
2022-08-31T12:38:04.371Z,5.90
2022-08-31T12:40:43.492Z,7.27
2022-08-31T12:43:17.328Z,6.97
2022-08-31T12:46:02.546Z,6.40
2022-08-31T12:48:57.634Z,6.40
2022-08-31T12:51:47.179Z,5.83
2022-08-31T12:54:41.762Z,35.00
2022-08-31T12:57:45.974Z,14.73
2022-08-31T13:00:34.839Z,9.17
2022-08-31T13:03:17.251Z,6.83
2022-08-31T13:06:08.190Z,6.50
2022-08-31T13:08:41.990Z,6.40
2022-08-31T13:11:26.196Z,6.63
2022-08-31T13:14:20.844Z,5.90
2022-08-31T13:17:10.518Z,6.00
2022-08-31T13:19:53.843Z,5.30
2022-08-31T13:22:30.571Z,5.50
2022-08-31T13:25:36.850Z,5.80
2022-08-31T13:28:19.099Z,5.70
2022-08-31T13:31:01.478Z,4.90
2022-08-31T13:33:35.104Z,5.57
2022-08-31T13:36:31.717Z,5.57
2022-08-31T13:39:03.558Z,4.83
2022-08-31T13:41:36.766Z,5.20
2022-08-31T13:44:09.677Z,4.67
2022-08-31T13:46:44.489Z,5.03
2022-08-31T13:49:44.373Z,4.90
2022-08-31T13:52:26.875Z,4.60
2022-08-31T13:55:13.378Z,4.67
2022-08-31T13:57:41.680Z,5.00
2022-08-31T14:00:32.403Z,7.03
2022-08-31T14:03:45.129Z,5.27
2022-08-31T14:06:39.254Z,3.77
2022-08-31T14:09:18.271Z,4.20
2022-08-31T14:12:05.240Z,4.70
2022-08-31T14:14:42.181Z,4.23
2022-08-31T14:17:18.093Z,4.27
2022-08-31T14:19:45.797Z,4.63
2022-08-31T14:22:35.374Z,4.20
2022-08-31T14:25:03.817Z,4.50
2022-08-31T14:27:30.758Z,4.37
2022-08-31T14:29:58.416Z,4.63
2022-08-31T14:32:25.753Z,4.27
2022-08-31T14:34:53.448Z,3.70
2022-08-31T14:37:22.625Z,4.20
2022-08-31T14:39:55.138Z,3.90
2022-08-31T14:42:27.496Z,3.93
2022-08-31T14:45:06.590Z,4.33
2022-08-31T14:47:41.887Z,3.80
2022-08-31T14:50:11.428Z,4.17
2022-08-31T14:52:45.365Z,3.87
2022-08-31T14:55:14.346Z,3.50
2022-08-31T14:57:47.515Z,3.43
2022-08-31T15:00:22.000Z,3.00
2022-08-31T15:02:53.234Z,3.67
2022-08-31T15:05:24.468Z,3.47
2022-08-31T15:07:54.194Z,3.77
2022-08-31T15:10:25.654Z,3.23
2022-08-31T15:12:53.535Z,4.17
2022-08-31T15:15:20.911Z,3.33
2022-08-31T15:17:51.218Z,8.50
2022-08-31T15:20:21.077Z,15.20
2022-08-31T15:22:48.651Z,5.93
2022-08-31T15:25:18.508Z,3.67
2022-08-31T15:27:45.536Z,2.87
2022-08-31T15:30:16.068Z,3.13
2022-08-31T15:32:47.848Z,3.10
2022-08-31T15:35:20.531Z,3.00
2022-08-31T15:37:58.944Z,3.40
2022-08-31T15:40:29.600Z,2.70
2022-08-31T15:42:58.015Z,3.20
2022-08-31T15:45:28.247Z,3.20
2022-08-31T15:48:14.181Z,3.03
2022-08-31T15:50:53.626Z,3.57
2022-08-31T15:53:23.738Z,3.07
2022-08-31T15:55:51.750Z,3.43
2022-08-31T15:58:24.518Z,3.17
2022-08-31T16:00:52.179Z,3.50
2022-08-31T16:03:19.291Z,3.70
2022-08-31T16:05:47.323Z,3.43
2022-08-31T16:08:14.462Z,3.30
2022-08-31T16:10:46.871Z,3.90
2022-08-31T16:13:16.245Z,3.30
2022-08-31T16:15:51.400Z,3.40
2022-08-31T16:18:21.280Z,11.90
2022-08-31T16:20:49.086Z,6.47
2022-08-31T16:23:16.646Z,13.90
2022-08-31T16:25:48.142Z,5.30
2022-08-31T16:28:20.773Z,3.77
2022-08-31T16:30:51.404Z,3.90
2022-08-31T16:33:18.978Z,3.60
2022-08-31T16:35:46.072Z,3.43
2022-08-31T16:38:13.365Z,3.83
2022-08-31T16:40:41.744Z,3.77
2022-08-31T16:43:08.868Z,3.57
2022-08-31T16:45:39.715Z,3.33
2022-08-31T16:48:25.605Z,3.17
2022-08-31T16:50:56.470Z,3.70
2022-08-31T16:53:24.625Z,3.43
2022-08-31T16:55:53.182Z,3.37
2022-08-31T16:58:40.968Z,3.70
2022-08-31T17:01:15.057Z,3.47
2022-08-31T17:03:49.258Z,4.40
2022-08-31T17:06:16.826Z,28.47
2022-08-31T17:08:45.406Z,12.00
2022-08-31T17:11:23.877Z,5.20
2022-08-31T17:13:59.259Z,4.63
2022-08-31T17:16:36.253Z,3.70
2022-08-31T17:19:08.342Z,3.73
2022-08-31T17:21:49.652Z,4.00
2022-08-31T17:24:21.639Z,4.23
2022-08-31T17:26:51.107Z,4.10
2022-08-31T17:29:20.663Z,4.07
2022-08-31T17:31:49.248Z,4.00
2022-08-31T17:34:23.358Z,4.00
2022-08-31T17:36:51.950Z,4.10
2022-08-31T17:39:20.810Z,4.23
2022-08-31T17:41:49.893Z,3.70
2022-08-31T17:44:19.923Z,3.80
2022-08-31T17:46:50.074Z,4.07
2022-08-31T17:49:20.771Z,4.60
2022-08-31T17:51:49.840Z,4.00
2022-08-31T17:54:21.142Z,4.60
2022-08-31T17:56:53.481Z,4.13
2022-08-31T17:59:31.221Z,4.20
2022-08-31T18:02:02.671Z,3.90
2022-08-31T18:04:31.697Z,3.60
2022-08-31T18:06:58.742Z,3.90
2022-08-31T18:09:31.185Z,3.80
2022-08-31T18:11:59.330Z,6.20
2022-08-31T18:14:29.879Z,6.27
2022-08-31T18:16:59.837Z,10.33
2022-08-31T18:19:28.637Z,7.50
2022-08-31T18:21:59.974Z,4.50
2022-08-31T18:24:28.214Z,4.10
2022-08-31T18:26:56.746Z,4.33
2022-08-31T18:29:24.948Z,4.00
2022-08-31T18:31:54.171Z,4.00
2022-08-31T18:34:24.243Z,3.67
2022-08-31T18:36:55.153Z,4.07
2022-08-31T18:39:49.958Z,3.80
2022-08-31T18:42:32.374Z,3.33
2022-08-31T18:45:19.528Z,3.47
2022-08-31T18:50:47.110Z,5.37
2022-08-31T18:53:29.277Z,4.53
2022-08-31T18:56:10.690Z,3.90
2022-08-31T18:58:39.086Z,4.00
2022-08-31T19:01:11.308Z,3.90
2022-08-31T19:03:39.600Z,3.90
2022-08-31T19:06:07.889Z,4.13
2022-08-31T19:08:35.060Z,4.10
2022-08-31T19:11:07.032Z,3.90
2022-08-31T19:13:34.378Z,4.00
2022-08-31T19:16:10.764Z,3.50
2022-08-31T19:18:42.167Z,3.87
2022-08-31T19:21:16.358Z,5.10
2022-08-31T19:23:44.061Z,4.10
2022-08-31T19:26:17.731Z,4.10
2022-08-31T19:28:48.673Z,4.37
2022-08-31T19:31:18.768Z,4.60
2022-08-31T19:33:46.446Z,4.90
2022-08-31T19:36:14.291Z,4.40
2022-08-31T19:38:42.562Z,4.50
2022-08-31T19:41:22.602Z,3.30
2022-08-31T19:43:56.086Z,3.53
2022-08-31T19:46:34.872Z,3.80
2022-08-31T19:49:02.503Z,3.17
2022-08-31T19:51:31.429Z,2.90
2022-08-31T19:53:59.675Z,2.50
2022-08-31T19:56:30.407Z,2.87
2022-08-31T19:58:59.368Z,3.00
2022-08-31T20:01:34.002Z,2.93
2022-08-31T20:04:07.954Z,2.80
2022-08-31T20:06:35.118Z,3.23
2022-08-31T20:09:02.090Z,3.50
2022-08-31T20:11:30.537Z,2.70
2022-08-31T20:13:59.395Z,3.50
2022-08-31T20:16:33.803Z,3.03
2022-08-31T20:19:03.900Z,3.07
2022-08-31T20:21:34.720Z,2.80
2022-08-31T20:24:10.000Z,2.80
2022-08-31T20:26:47.123Z,3.47
2022-08-31T20:29:20.217Z,3.07
2022-08-31T20:31:50.338Z,3.30
2022-08-31T20:34:20.076Z,3.30
2022-08-31T20:36:50.876Z,3.50
2022-08-31T20:39:20.212Z,3.20
2022-08-31T20:41:51.138Z,3.90
2022-08-31T20:44:31.047Z,3.17
2022-08-31T20:47:26.389Z,3.60
2022-08-31T20:49:57.525Z,3.00
2022-08-31T20:52:28.934Z,3.30
2022-08-31T20:55:01.693Z,2.87
2022-08-31T20:57:31.918Z,3.30
2022-08-31T21:00:05.445Z,3.10
2022-08-31T21:02:33.943Z,3.00
2022-08-31T21:05:26.819Z,2.90
2022-08-31T21:07:48.375Z,3.37
2022-08-31T21:10:15.346Z,3.10
2022-08-31T21:12:42.765Z,3.63
2022-08-31T21:15:12.282Z,3.27
2022-08-31T21:17:40.622Z,3.20
2022-08-31T21:20:08.255Z,2.93
2022-08-31T21:22:35.195Z,3.10
2022-08-31T21:25:02.187Z,2.90
2022-08-31T21:27:30.086Z,2.73
2022-08-31T21:29:57.080Z,2.37
2022-08-31T21:32:24.625Z,3.07
2022-08-31T21:34:57.082Z,2.83
2022-08-31T21:37:24.505Z,3.30
2022-08-31T21:39:57.157Z,3.00
2022-08-31T21:42:24.859Z,2.60
2022-08-31T21:44:51.968Z,3.20
2022-08-31T21:47:18.997Z,2.80
2022-08-31T21:49:49.698Z,2.40
2022-08-31T21:52:17.172Z,3.67
2022-08-31T21:54:46.094Z,3.53
2022-08-31T21:57:14.148Z,3.93
2022-08-31T21:59:41.239Z,3.53
2022-08-31T22:02:11.534Z,3.23
2022-08-31T22:04:42.972Z,3.23
2022-08-31T22:07:14.116Z,2.90
2022-08-31T22:09:43.197Z,2.97
2022-08-31T22:12:12.757Z,3.33
2022-08-31T22:14:41.187Z,2.97
2022-08-31T22:17:09.257Z,2.43
2022-08-31T22:19:39.186Z,2.40
2022-08-31T22:22:11.975Z,2.70
2022-08-31T22:24:41.263Z,3.00
2022-08-31T22:27:11.926Z,2.73
2022-08-31T22:29:40.697Z,2.80
2022-08-31T22:32:15.061Z,2.97
2022-08-31T22:34:43.391Z,2.70
2022-08-31T22:37:13.757Z,3.10
2022-08-31T22:39:42.562Z,2.90
2022-08-31T22:42:09.832Z,2.63
2022-08-31T22:44:37.665Z,2.87
2022-08-31T22:47:05.342Z,2.77
2022-08-31T22:49:32.727Z,2.90
2022-08-31T22:51:59.775Z,3.00
2022-08-31T22:54:27.502Z,2.60
2022-08-31T22:56:55.004Z,2.53
2022-08-31T22:59:27.543Z,2.70
2022-08-31T23:02:03.260Z,2.47
2022-08-31T23:04:34.067Z,2.90
2022-08-31T23:07:03.543Z,2.63
2022-08-31T23:09:33.457Z,2.70
2022-08-31T23:12:03.998Z,2.73
2022-08-31T23:14:32.625Z,3.20
2022-08-31T23:17:03.950Z,2.80
2022-08-31T23:19:42.299Z,2.97
2022-08-31T23:22:15.181Z,3.20
2022-08-31T23:24:46.949Z,2.83
2022-08-31T23:27:21.551Z,2.87
2022-08-31T23:29:55.993Z,2.80
2022-08-31T23:32:27.579Z,2.80
2022-08-31T23:34:58.024Z,3.70
2022-08-31T23:37:26.712Z,3.20
2022-08-31T23:39:55.935Z,2.87
2022-08-31T23:42:26.273Z,2.77
2022-08-31T23:44:54.425Z,2.50
2022-08-31T23:47:25.824Z,2.83
2022-08-31T23:49:53.349Z,2.80
2022-08-31T23:52:24.276Z,2.93
2022-08-31T23:54:58.103Z,2.70
2022-08-31T23:57:32.472Z,2.93
